sensor_id;sensor_type;location;lat;lon;timestamp;P1;durP1;ratioP1;P2;durP2;ratioP2
48767;SDS011;34933;40.968;14.538;2022-07-23T00:02:00;11.95;;;10.82;;
48767;SDS011;34933;40.968;14.538;2022-07-23T00:04:45;10.52;;;9.52;;
48767;SDS011;34933;40.968;14.538;2022-07-23T00:07:29;12.57;;;9.88;;
48767;SDS011;34933;40.968;14.538;2022-07-23T00:10:14;24.25;;;11.15;;
48767;SDS011;34933;40.968;14.538;2022-07-23T00:12:58;11.63;;;9.52;;
48767;SDS011;34933;40.968;14.538;2022-07-23T00:15:43;10.65;;;9.48;;
48767;SDS011;34933;40.968;14.538;2022-07-23T00:18:28;11.27;;;9.65;;
48767;SDS011;34933;40.968;14.538;2022-07-23T00:21:13;12.93;;;8.85;;
48767;SDS011;34933;40.968;14.538;2022-07-23T00:23:57;12.35;;;10.07;;
48767;SDS011;34933;40.968;14.538;2022-07-23T00:26:42;11.45;;;10.32;;
48767;SDS011;34933;40.968;14.538;2022-07-23T00:29:27;11.13;;;9.60;;
48767;SDS011;34933;40.968;14.538;2022-07-23T00:32:11;12.98;;;10.57;;
48767;SDS011;34933;40.968;14.538;2022-07-23T00:34:56;11.38;;;9.98;;
48767;SDS011;34933;40.968;14.538;2022-07-23T00:37:40;14.25;;;9.80;;
48767;SDS011;34933;40.968;14.538;2022-07-23T00:40:25;10.90;;;9.80;;
48767;SDS011;34933;40.968;14.538;2022-07-23T00:43:10;14.07;;;10.48;;
48767;SDS011;34933;40.968;14.538;2022-07-23T00:45:55;13.07;;;10.30;;
48767;SDS011;34933;40.968;14.538;2022-07-23T00:48:40;10.82;;;9.80;;
48767;SDS011;34933;40.968;14.538;2022-07-23T00:51:25;13.65;;;9.88;;
48767;SDS011;34933;40.968;14.538;2022-07-23T00:54:09;10.38;;;9.30;;
48767;SDS011;34933;40.968;14.538;2022-07-23T00:56:54;10.48;;;9.38;;
48767;SDS011;34933;40.968;14.538;2022-07-23T00:59:39;10.88;;;9.88;;
48767;SDS011;34933;40.968;14.538;2022-07-23T01:02:24;10.98;;;9.48;;
48767;SDS011;34933;40.968;14.538;2022-07-23T01:05:09;11.18;;;9.73;;
48767;SDS011;34933;40.968;14.538;2022-07-23T01:07:53;13.73;;;9.90;;
48767;SDS011;34933;40.968;14.538;2022-07-23T01:10:38;10.13;;;9.18;;
48767;SDS011;34933;40.968;14.538;2022-07-23T01:13:23;10.35;;;9.00;;
48767;SDS011;34933;40.968;14.538;2022-07-23T01:16:07;9.98;;;9.07;;
48767;SDS011;34933;40.968;14.538;2022-07-23T01:18:52;12.13;;;9.52;;
48767;SDS011;34933;40.968;14.538;2022-07-23T01:21:41;10.65;;;9.55;;
48767;SDS011;34933;40.968;14.538;2022-07-23T01:24:30;15.55;;;10.00;;
48767;SDS011;34933;40.968;14.538;2022-07-23T01:27:18;12.68;;;10.23;;
48767;SDS011;34933;40.968;14.538;2022-07-23T01:30:04;11.25;;;9.70;;
48767;SDS011;34933;40.968;14.538;2022-07-23T01:32:50;11.07;;;9.38;;
48767;SDS011;34933;40.968;14.538;2022-07-23T01:35:34;12.90;;;9.93;;
48767;SDS011;34933;40.968;14.538;2022-07-23T01:38:22;10.45;;;9.45;;
48767;SDS011;34933;40.968;14.538;2022-07-23T01:41:06;12.52;;;10.10;;
48767;SDS011;34933;40.968;14.538;2022-07-23T01:43:51;11.48;;;9.88;;
48767;SDS011;34933;40.968;14.538;2022-07-23T01:46:37;10.82;;;9.43;;
48767;SDS011;34933;40.968;14.538;2022-07-23T01:49:22;11.23;;;10.13;;
48767;SDS011;34933;40.968;14.538;2022-07-23T01:52:16;11.35;;;10.20;;
48767;SDS011;34933;40.968;14.538;2022-07-23T01:55:04;10.57;;;9.55;;
48767;SDS011;34933;40.968;14.538;2022-07-23T01:57:50;11.05;;;10.15;;
48767;SDS011;34933;40.968;14.538;2022-07-23T02:00:38;12.88;;;9.30;;
48767;SDS011;34933;40.968;14.538;2022-07-23T02:03:23;12.20;;;10.60;;
48767;SDS011;34933;40.968;14.538;2022-07-23T02:06:07;14.02;;;10.40;;
48767;SDS011;34933;40.968;14.538;2022-07-23T02:08:52;14.38;;;10.43;;
48767;SDS011;34933;40.968;14.538;2022-07-23T02:11:39;11.00;;;10.07;;
48767;SDS011;34933;40.968;14.538;2022-07-23T02:14:24;13.50;;;9.93;;
48767;SDS011;34933;40.968;14.538;2022-07-23T02:17:10;11.40;;;10.13;;
48767;SDS011;34933;40.968;14.538;2022-07-23T02:19:54;12.70;;;11.38;;
48767;SDS011;34933;40.968;14.538;2022-07-23T02:22:39;16.42;;;10.65;;
48767;SDS011;34933;40.968;14.538;2022-07-23T02:25:27;11.23;;;10.20;;
48767;SDS011;34933;40.968;14.538;2022-07-23T02:28:17;12.70;;;10.40;;
48767;SDS011;34933;40.968;14.538;2022-07-23T02:31:01;12.50;;;10.07;;
48767;SDS011;34933;40.968;14.538;2022-07-23T02:33:46;11.75;;;10.68;;
48767;SDS011;34933;40.968;14.538;2022-07-23T02:36:32;16.58;;;11.63;;
48767;SDS011;34933;40.968;14.538;2022-07-23T02:39:16;143.18;;;21.02;;
48767;SDS011;34933;40.968;14.538;2022-07-23T02:42:01;167.27;;;24.35;;
48767;SDS011;34933;40.968;14.538;2022-07-23T02:44:48;59.58;;;16.02;;
48767;SDS011;34933;40.968;14.538;2022-07-23T02:47:32;29.52;;;11.90;;
48767;SDS011;34933;40.968;14.538;2022-07-23T02:50:18;17.35;;;10.50;;
48767;SDS011;34933;40.968;14.538;2022-07-23T02:53:03;33.33;;;11.52;;
48767;SDS011;34933;40.968;14.538;2022-07-23T02:55:47;23.88;;;11.55;;
48767;SDS011;34933;40.968;14.538;2022-07-23T02:58:32;46.90;;;12.63;;
48767;SDS011;34933;40.968;14.538;2022-07-23T03:01:18;48.80;;;15.05;;
48767;SDS011;34933;40.968;14.538;2022-07-23T03:04:04;59.95;;;15.10;;
48767;SDS011;34933;40.968;14.538;2022-07-23T03:06:48;29.27;;;10.90;;
48767;SDS011;34933;40.968;14.538;2022-07-23T03:09:33;14.98;;;10.57;;
48767;SDS011;34933;40.968;14.538;2022-07-23T03:12:18;17.88;;;10.77;;
48767;SDS011;34933;40.968;14.538;2022-07-23T03:15:03;42.70;;;11.88;;
48767;SDS011;34933;40.968;14.538;2022-07-23T03:17:48;22.77;;;11.48;;
48767;SDS011;34933;40.968;14.538;2022-07-23T03:20:32;17.13;;;10.20;;
48767;SDS011;34933;40.968;14.538;2022-07-23T03:23:17;20.42;;;10.63;;
48767;SDS011;34933;40.968;14.538;2022-07-23T03:26:02;15.75;;;10.70;;
48767;SDS011;34933;40.968;14.538;2022-07-23T03:28:46;13.23;;;10.20;;
48767;SDS011;34933;40.968;14.538;2022-07-23T03:31:31;11.48;;;10.35;;
48767;SDS011;34933;40.968;14.538;2022-07-23T03:34:16;12.90;;;11.63;;
48767;SDS011;34933;40.968;14.538;2022-07-23T03:37:02;12.25;;;10.95;;
48767;SDS011;34933;40.968;14.538;2022-07-23T03:39:47;13.20;;;11.50;;
48767;SDS011;34933;40.968;14.538;2022-07-23T03:42:32;11.23;;;10.23;;
48767;SDS011;34933;40.968;14.538;2022-07-23T03:45:16;15.60;;;11.55;;
48767;SDS011;34933;40.968;14.538;2022-07-23T03:48:01;13.02;;;11.68;;
48767;SDS011;34933;40.968;14.538;2022-07-23T03:50:46;16.63;;;12.38;;
48767;SDS011;34933;40.968;14.538;2022-07-23T03:53:31;18.13;;;12.10;;
48767;SDS011;34933;40.968;14.538;2022-07-23T03:56:15;23.15;;;13.55;;
48767;SDS011;34933;40.968;14.538;2022-07-23T03:59:01;17.02;;;14.27;;
48767;SDS011;34933;40.968;14.538;2022-07-23T04:01:45;15.68;;;14.13;;
48767;SDS011;34933;40.968;14.538;2022-07-23T04:04:30;24.48;;;16.70;;
48767;SDS011;34933;40.968;14.538;2022-07-23T04:07:15;16.80;;;15.00;;
48767;SDS011;34933;40.968;14.538;2022-07-23T04:10:01;19.33;;;15.75;;
48767;SDS011;34933;40.968;14.538;2022-07-23T04:12:46;19.30;;;15.32;;
48767;SDS011;34933;40.968;14.538;2022-07-23T04:15:31;21.50;;;16.25;;
48767;SDS011;34933;40.968;14.538;2022-07-23T04:18:16;28.60;;;18.42;;
48767;SDS011;34933;40.968;14.538;2022-07-23T04:21:13;86.97;;;23.92;;
48767;SDS011;34933;40.968;14.538;2022-07-23T04:23:57;57.60;;;24.80;;
48767;SDS011;34933;40.968;14.538;2022-07-23T04:26:42;73.95;;;28.67;;
48767;SDS011;34933;40.968;14.538;2022-07-23T04:29:27;77.95;;;35.65;;
48767;SDS011;34933;40.968;14.538;2022-07-23T04:32:12;55.38;;;35.63;;
48767;SDS011;34933;40.968;14.538;2022-07-23T04:34:56;63.95;;;36.55;;
48767;SDS011;34933;40.968;14.538;2022-07-23T04:37:41;96.43;;;36.83;;
48767;SDS011;34933;40.968;14.538;2022-07-23T04:40:26;88.25;;;36.47;;
48767;SDS011;34933;40.968;14.538;2022-07-23T04:43:11;103.10;;;34.65;;
48767;SDS011;34933;40.968;14.538;2022-07-23T04:46:04;128.05;;;33.90;;
48767;SDS011;34933;40.968;14.538;2022-07-23T04:48:55;93.37;;;29.07;;
48767;SDS011;34933;40.968;14.538;2022-07-23T04:51:40;95.40;;;28.50;;
48767;SDS011;34933;40.968;14.538;2022-07-23T04:54:25;102.97;;;27.50;;
48767;SDS011;34933;40.968;14.538;2022-07-23T04:57:09;107.07;;;24.10;;
48767;SDS011;34933;40.968;14.538;2022-07-23T04:59:54;92.03;;;20.55;;
48767;SDS011;34933;40.968;14.538;2022-07-23T05:02:38;73.88;;;18.95;;
48767;SDS011;34933;40.968;14.538;2022-07-23T05:05:23;70.97;;;17.60;;
48767;SDS011;34933;40.968;14.538;2022-07-23T05:08:08;61.28;;;17.60;;
48767;SDS011;34933;40.968;14.538;2022-07-23T05:10:55;39.45;;;14.73;;
48767;SDS011;34933;40.968;14.538;2022-07-23T05:13:40;45.13;;;15.98;;
48767;SDS011;34933;40.968;14.538;2022-07-23T05:16:25;69.10;;;17.35;;
48767;SDS011;34933;40.968;14.538;2022-07-23T05:19:14;41.60;;;14.65;;
48767;SDS011;34933;40.968;14.538;2022-07-23T05:21:59;45.85;;;19.23;;
48767;SDS011;34933;40.968;14.538;2022-07-23T05:24:44;37.53;;;15.73;;
48767;SDS011;34933;40.968;14.538;2022-07-23T05:27:29;39.03;;;14.63;;
48767;SDS011;34933;40.968;14.538;2022-07-23T05:30:14;34.53;;;14.98;;
48767;SDS011;34933;40.968;14.538;2022-07-23T05:33:01;51.38;;;15.68;;
48767;SDS011;34933;40.968;14.538;2022-07-23T05:35:45;39.33;;;16.30;;
48767;SDS011;34933;40.968;14.538;2022-07-23T05:38:39;36.40;;;15.38;;
48767;SDS011;34933;40.968;14.538;2022-07-23T05:41:24;49.90;;;17.77;;
48767;SDS011;34933;40.968;14.538;2022-07-23T05:44:08;34.40;;;16.80;;
48767;SDS011;34933;40.968;14.538;2022-07-23T05:46:56;50.17;;;25.30;;
48767;SDS011;34933;40.968;14.538;2022-07-23T05:49:43;44.80;;;18.65;;
48767;SDS011;34933;40.968;14.538;2022-07-23T05:52:56;50.00;;;20.33;;
48767;SDS011;34933;40.968;14.538;2022-07-23T05:56:00;58.30;;;30.33;;
48767;SDS011;34933;40.968;14.538;2022-07-23T05:58:46;62.25;;;23.52;;
48767;SDS011;34933;40.968;14.538;2022-07-23T06:01:33;65.80;;;26.73;;
48767;SDS011;34933;40.968;14.538;2022-07-23T06:04:28;37.65;;;20.60;;
48767;SDS011;34933;40.968;14.538;2022-07-23T06:07:33;37.72;;;22.08;;
48767;SDS011;34933;40.968;14.538;2022-07-23T06:10:18;33.47;;;18.85;;
48767;SDS011;34933;40.968;14.538;2022-07-23T06:13:03;50.70;;;29.80;;
48767;SDS011;34933;40.968;14.538;2022-07-23T06:15:48;37.95;;;18.70;;
48767;SDS011;34933;40.968;14.538;2022-07-23T06:18:33;38.33;;;28.63;;
48767;SDS011;34933;40.968;14.538;2022-07-23T06:21:17;25.83;;;16.15;;
48767;SDS011;34933;40.968;14.538;2022-07-23T06:24:01;20.05;;;15.68;;
48767;SDS011;34933;40.968;14.538;2022-07-23T06:26:46;23.50;;;15.88;;
48767;SDS011;34933;40.968;14.538;2022-07-23T06:29:32;15.48;;;10.30;;
48767;SDS011;34933;40.968;14.538;2022-07-23T06:32:16;18.08;;;11.00;;
48767;SDS011;34933;40.968;14.538;2022-07-23T06:35:01;15.05;;;11.10;;
48767;SDS011;34933;40.968;14.538;2022-07-23T06:37:46;21.25;;;11.00;;
48767;SDS011;34933;40.968;14.538;2022-07-23T06:40:30;15.88;;;11.50;;
48767;SDS011;34933;40.968;14.538;2022-07-23T06:43:15;12.82;;;10.35;;
48767;SDS011;34933;40.968;14.538;2022-07-23T06:46:02;12.77;;;10.13;;
48767;SDS011;34933;40.968;14.538;2022-07-23T06:48:47;14.75;;;10.25;;
48767;SDS011;34933;40.968;14.538;2022-07-23T06:51:31;13.55;;;9.75;;
48767;SDS011;34933;40.968;14.538;2022-07-23T06:54:18;20.30;;;10.90;;
48767;SDS011;34933;40.968;14.538;2022-07-23T06:57:03;13.32;;;9.43;;
48767;SDS011;34933;40.968;14.538;2022-07-23T06:59:47;11.48;;;9.32;;
48767;SDS011;34933;40.968;14.538;2022-07-23T07:02:32;15.77;;;9.18;;
48767;SDS011;34933;40.968;14.538;2022-07-23T07:05:17;16.27;;;9.88;;
48767;SDS011;34933;40.968;14.538;2022-07-23T07:08:01;11.50;;;9.30;;
48767;SDS011;34933;40.968;14.538;2022-07-23T07:10:46;10.60;;;9.07;;
48767;SDS011;34933;40.968;14.538;2022-07-23T07:13:31;11.70;;;9.35;;
48767;SDS011;34933;40.968;14.538;2022-07-23T07:16:15;16.15;;;10.30;;
48767;SDS011;34933;40.968;14.538;2022-07-23T07:19:00;12.40;;;10.13;;
48767;SDS011;34933;40.968;14.538;2022-07-23T07:21:45;13.23;;;10.00;;
48767;SDS011;34933;40.968;14.538;2022-07-23T07:24:29;18.02;;;10.35;;
48767;SDS011;34933;40.968;14.538;2022-07-23T07:27:14;18.45;;;10.43;;
48767;SDS011;34933;40.968;14.538;2022-07-23T07:29:58;16.13;;;9.88;;
48767;SDS011;34933;40.968;14.538;2022-07-23T07:32:43;14.57;;;8.75;;
48767;SDS011;34933;40.968;14.538;2022-07-23T07:35:28;16.23;;;9.27;;
48767;SDS011;34933;40.968;14.538;2022-07-23T07:38:12;16.27;;;9.00;;
48767;SDS011;34933;40.968;14.538;2022-07-23T07:40:57;15.75;;;9.82;;
48767;SDS011;34933;40.968;14.538;2022-07-23T07:43:42;14.48;;;9.48;;
48767;SDS011;34933;40.968;14.538;2022-07-23T07:46:26;15.63;;;9.13;;
48767;SDS011;34933;40.968;14.538;2022-07-23T07:49:11;11.35;;;8.77;;
48767;SDS011;34933;40.968;14.538;2022-07-23T07:51:55;9.48;;;8.30;;
48767;SDS011;34933;40.968;14.538;2022-07-23T07:54:40;12.88;;;8.73;;
48767;SDS011;34933;40.968;14.538;2022-07-23T07:57:25;14.43;;;10.45;;
48767;SDS011;34933;40.968;14.538;2022-07-23T08:00:10;10.82;;;9.60;;
48767;SDS011;34933;40.968;14.538;2022-07-23T08:02:58;11.57;;;9.13;;
48767;SDS011;34933;40.968;14.538;2022-07-23T08:05:42;17.58;;;10.05;;
48767;SDS011;34933;40.968;14.538;2022-07-23T08:08:27;18.60;;;11.63;;
48767;SDS011;34933;40.968;14.538;2022-07-23T08:11:12;20.15;;;11.48;;
48767;SDS011;34933;40.968;14.538;2022-07-23T08:13:56;17.83;;;11.63;;
48767;SDS011;34933;40.968;14.538;2022-07-23T08:16:41;22.25;;;11.98;;
48767;SDS011;34933;40.968;14.538;2022-07-23T08:19:26;14.02;;;10.30;;
48767;SDS011;34933;40.968;14.538;2022-07-23T08:22:10;14.18;;;9.95;;
48767;SDS011;34933;40.968;14.538;2022-07-23T08:24:55;15.57;;;10.18;;
48767;SDS011;34933;40.968;14.538;2022-07-23T08:27:40;13.13;;;8.93;;
48767;SDS011;34933;40.968;14.538;2022-07-23T08:30:25;14.27;;;8.52;;
48767;SDS011;34933;40.968;14.538;2022-07-23T08:33:11;18.25;;;9.50;;
48767;SDS011;34933;40.968;14.538;2022-07-23T08:35:57;12.30;;;9.60;;
48767;SDS011;34933;40.968;14.538;2022-07-23T08:38:42;13.00;;;10.23;;
48767;SDS011;34933;40.968;14.538;2022-07-23T08:41:27;12.25;;;8.52;;
48767;SDS011;34933;40.968;14.538;2022-07-23T08:44:12;12.35;;;8.55;;
48767;SDS011;34933;40.968;14.538;2022-07-23T08:46:57;16.77;;;9.70;;
48767;SDS011;34933;40.968;14.538;2022-07-23T08:49:42;21.50;;;11.15;;
48767;SDS011;34933;40.968;14.538;2022-07-23T08:52:30;13.82;;;11.20;;
48767;SDS011;34933;40.968;14.538;2022-07-23T08:55:15;18.15;;;12.48;;
48767;SDS011;34933;40.968;14.538;2022-07-23T08:58:01;18.35;;;13.05;;
48767;SDS011;34933;40.968;14.538;2022-07-23T09:00:46;17.08;;;12.57;;
48767;SDS011;34933;40.968;14.538;2022-07-23T09:03:32;19.63;;;11.65;;
48767;SDS011;34933;40.968;14.538;2022-07-23T09:06:19;15.27;;;10.95;;
48767;SDS011;34933;40.968;14.538;2022-07-23T09:09:16;18.40;;;11.50;;
48767;SDS011;34933;40.968;14.538;2022-07-23T09:12:05;14.70;;;10.27;;
48767;SDS011;34933;40.968;14.538;2022-07-23T09:14:51;13.63;;;10.00;;
48767;SDS011;34933;40.968;14.538;2022-07-23T09:17:40;13.20;;;9.82;;
48767;SDS011;34933;40.968;14.538;2022-07-23T09:20:25;15.10;;;11.85;;
48767;SDS011;34933;40.968;14.538;2022-07-23T09:23:12;17.42;;;11.18;;
48767;SDS011;34933;40.968;14.538;2022-07-23T09:25:56;14.15;;;10.40;;
48767;SDS011;34933;40.968;14.538;2022-07-23T09:28:51;22.85;;;11.88;;
48767;SDS011;34933;40.968;14.538;2022-07-23T09:34:27;16.25;;;10.70;;
48767;SDS011;34933;40.968;14.538;2022-07-23T09:37:15;18.38;;;9.77;;
48767;SDS011;34933;40.968;14.538;2022-07-23T09:40:08;15.45;;;10.30;;
48767;SDS011;34933;40.968;14.538;2022-07-23T09:42:55;17.77;;;10.38;;
48767;SDS011;34933;40.968;14.538;2022-07-23T09:45:40;16.63;;;9.88;;
48767;SDS011;34933;40.968;14.538;2022-07-23T09:48:24;11.73;;;8.77;;
48767;SDS011;34933;40.968;14.538;2022-07-23T09:51:10;13.00;;;9.80;;
48767;SDS011;34933;40.968;14.538;2022-07-23T09:53:55;19.25;;;10.45;;
48767;SDS011;34933;40.968;14.538;2022-07-23T09:56:39;17.95;;;10.25;;
48767;SDS011;34933;40.968;14.538;2022-07-23T09:59:26;36.50;;;17.90;;
48767;SDS011;34933;40.968;14.538;2022-07-23T10:02:14;14.68;;;10.45;;
48767;SDS011;34933;40.968;14.538;2022-07-23T10:05:18;21.20;;;11.02;;
48767;SDS011;34933;40.968;14.538;2022-07-23T10:08:22;14.07;;;9.48;;
48767;SDS011;34933;40.968;14.538;2022-07-23T10:11:33;12.85;;;10.10;;
48767;SDS011;34933;40.968;14.538;2022-07-23T10:14:30;11.40;;;10.30;;
48767;SDS011;34933;40.968;14.538;2022-07-23T10:17:20;10.63;;;9.32;;
48767;SDS011;34933;40.968;14.538;2022-07-23T10:20:04;13.38;;;9.00;;
48767;SDS011;34933;40.968;14.538;2022-07-23T10:23:00;11.18;;;9.45;;
48767;SDS011;34933;40.968;14.538;2022-07-23T10:38:10;12.65;;;9.93;;
48767;SDS011;34933;40.968;14.538;2022-07-23T10:41:03;19.40;;;12.52;;
48767;SDS011;34933;40.968;14.538;2022-07-23T10:44:05;12.85;;;11.52;;
48767;SDS011;34933;40.968;14.538;2022-07-23T10:47:02;17.90;;;15.07;;
48767;SDS011;34933;40.968;14.538;2022-07-23T10:53:20;13.38;;;9.82;;
48767;SDS011;34933;40.968;14.538;2022-07-23T10:56:05;22.17;;;10.55;;
48767;SDS011;34933;40.968;14.538;2022-07-23T10:58:50;15.48;;;10.00;;
48767;SDS011;34933;40.968;14.538;2022-07-23T11:01:38;19.13;;;12.23;;
48767;SDS011;34933;40.968;14.538;2022-07-23T11:04:47;20.10;;;18.00;;
48767;SDS011;34933;40.968;14.538;2022-07-23T11:10:48;10.57;;;9.50;;
48767;SDS011;34933;40.968;14.538;2022-07-23T11:13:45;21.23;;;11.45;;
48767;SDS011;34933;40.968;14.538;2022-07-23T11:16:38;11.55;;;10.30;;
48767;SDS011;34933;40.968;14.538;2022-07-23T11:19:31;14.77;;;10.23;;
48767;SDS011;34933;40.968;14.538;2022-07-23T11:22:56;12.40;;;9.02;;
48767;SDS011;34933;40.968;14.538;2022-07-23T11:25:42;11.35;;;10.27;;
48767;SDS011;34933;40.968;14.538;2022-07-23T11:28:28;9.65;;;8.75;;
48767;SDS011;34933;40.968;14.538;2022-07-23T11:31:19;15.90;;;9.85;;
48767;SDS011;34933;40.968;14.538;2022-07-23T11:40:21;19.90;;;17.92;;
48767;SDS011;34933;40.968;14.538;2022-07-23T11:43:07;26.52;;;20.17;;
48767;SDS011;34933;40.968;14.538;2022-07-23T11:45:53;22.23;;;15.95;;
48767;SDS011;34933;40.968;14.538;2022-07-23T11:48:41;12.13;;;9.57;;
48767;SDS011;34933;40.968;14.538;2022-07-23T11:51:26;16.92;;;14.48;;
48767;SDS011;34933;40.968;14.538;2022-07-23T11:54:11;12.55;;;10.85;;
48767;SDS011;34933;40.968;14.538;2022-07-23T11:56:56;10.68;;;9.57;;
48767;SDS011;34933;40.968;14.538;2022-07-23T11:59:42;9.70;;;8.73;;
48767;SDS011;34933;40.968;14.538;2022-07-23T12:02:27;8.98;;;8.05;;
48767;SDS011;34933;40.968;14.538;2022-07-23T12:05:12;10.82;;;8.43;;
48767;SDS011;34933;40.968;14.538;2022-07-23T12:07:59;16.15;;;11.73;;
48767;SDS011;34933;40.968;14.538;2022-07-23T12:10:45;13.15;;;11.90;;
48767;SDS011;34933;40.968;14.538;2022-07-23T12:13:29;24.20;;;20.35;;
48767;SDS011;34933;40.968;14.538;2022-07-23T12:16:14;17.08;;;9.35;;
48767;SDS011;34933;40.968;14.538;2022-07-23T12:18:58;8.45;;;7.65;;
48767;SDS011;34933;40.968;14.538;2022-07-23T12:21:43;10.52;;;8.90;;
48767;SDS011;34933;40.968;14.538;2022-07-23T12:24:28;11.55;;;9.05;;
48767;SDS011;34933;40.968;14.538;2022-07-23T12:27:12;11.02;;;8.05;;
48767;SDS011;34933;40.968;14.538;2022-07-23T12:29:58;12.05;;;7.53;;
48767;SDS011;34933;40.968;14.538;2022-07-23T12:32:43;25.77;;;15.85;;
48767;SDS011;34933;40.968;14.538;2022-07-23T12:35:31;14.13;;;10.55;;
48767;SDS011;34933;40.968;14.538;2022-07-23T12:38:19;11.55;;;7.32;;
48767;SDS011;34933;40.968;14.538;2022-07-23T12:41:05;12.73;;;8.98;;
48767;SDS011;34933;40.968;14.538;2022-07-23T12:43:50;11.23;;;9.43;;
48767;SDS011;34933;40.968;14.538;2022-07-23T12:46:34;16.40;;;11.18;;
48767;SDS011;34933;40.968;14.538;2022-07-23T12:49:28;10.88;;;7.55;;
48767;SDS011;34933;40.968;14.538;2022-07-23T12:52:16;10.20;;;6.32;;
48767;SDS011;34933;40.968;14.538;2022-07-23T12:55:26;14.82;;;10.23;;
48767;SDS011;34933;40.968;14.538;2022-07-23T12:58:18;9.27;;;5.80;;
48767;SDS011;34933;40.968;14.538;2022-07-23T13:01:04;8.63;;;5.95;;
48767;SDS011;34933;40.968;14.538;2022-07-23T13:09:33;6.82;;;6.05;;
48767;SDS011;34933;40.968;14.538;2022-07-23T13:12:18;8.25;;;6.45;;
48767;SDS011;34933;40.968;14.538;2022-07-23T13:15:02;5.95;;;5.32;;
48767;SDS011;34933;40.968;14.538;2022-07-23T13:17:48;9.68;;;5.68;;
48767;SDS011;34933;40.968;14.538;2022-07-23T13:20:32;7.78;;;6.82;;
48767;SDS011;34933;40.968;14.538;2022-07-23T13:23:17;8.65;;;5.55;;
48767;SDS011;34933;40.968;14.538;2022-07-23T13:26:02;9.32;;;5.78;;
48767;SDS011;34933;40.968;14.538;2022-07-23T13:28:48;7.00;;;5.85;;
48767;SDS011;34933;40.968;14.538;2022-07-23T13:31:33;9.43;;;4.88;;
48767;SDS011;34933;40.968;14.538;2022-07-23T13:34:19;9.55;;;5.15;;
48767;SDS011;34933;40.968;14.538;2022-07-23T13:37:04;6.53;;;5.65;;
48767;SDS011;34933;40.968;14.538;2022-07-23T13:39:49;7.50;;;5.63;;
48767;SDS011;34933;40.968;14.538;2022-07-23T13:42:34;10.35;;;4.75;;
48767;SDS011;34933;40.968;14.538;2022-07-23T13:45:19;7.35;;;5.45;;
48767;SDS011;34933;40.968;14.538;2022-07-23T13:48:04;7.15;;;5.10;;
48767;SDS011;34933;40.968;14.538;2022-07-23T13:50:50;8.48;;;5.13;;
48767;SDS011;34933;40.968;14.538;2022-07-23T13:53:35;10.85;;;6.35;;
48767;SDS011;34933;40.968;14.538;2022-07-23T13:56:20;5.78;;;4.82;;
48767;SDS011;34933;40.968;14.538;2022-07-23T13:59:04;7.00;;;5.95;;
48767;SDS011;34933;40.968;14.538;2022-07-23T14:01:49;10.15;;;7.47;;
48767;SDS011;34933;40.968;14.538;2022-07-23T14:04:34;6.63;;;5.22;;
48767;SDS011;34933;40.968;14.538;2022-07-23T14:07:19;8.85;;;5.30;;
48767;SDS011;34933;40.968;14.538;2022-07-23T14:10:04;7.30;;;5.07;;
48767;SDS011;34933;40.968;14.538;2022-07-23T14:12:50;10.93;;;4.53;;
48767;SDS011;34933;40.968;14.538;2022-07-23T14:15:36;6.40;;;4.90;;
48767;SDS011;34933;40.968;14.538;2022-07-23T14:18:24;7.60;;;4.72;;
48767;SDS011;34933;40.968;14.538;2022-07-23T14:21:08;8.88;;;5.07;;
48767;SDS011;34933;40.968;14.538;2022-07-23T14:23:53;8.23;;;5.70;;
48767;SDS011;34933;40.968;14.538;2022-07-23T14:26:38;9.75;;;4.68;;
48767;SDS011;34933;40.968;14.538;2022-07-23T14:29:22;7.13;;;4.78;;
48767;SDS011;34933;40.968;14.538;2022-07-23T14:32:07;5.53;;;4.50;;
48767;SDS011;34933;40.968;14.538;2022-07-23T14:34:51;7.22;;;4.72;;
48767;SDS011;34933;40.968;14.538;2022-07-23T14:37:38;5.35;;;4.00;;
48767;SDS011;34933;40.968;14.538;2022-07-23T14:40:23;9.43;;;4.38;;
48767;SDS011;34933;40.968;14.538;2022-07-23T14:43:08;21.65;;;15.73;;
48767;SDS011;34933;40.968;14.538;2022-07-23T14:45:53;24.38;;;19.55;;
48767;SDS011;34933;40.968;14.538;2022-07-23T14:48:37;15.23;;;10.23;;
48767;SDS011;34933;40.968;14.538;2022-07-23T14:51:22;24.08;;;17.60;;
48767;SDS011;34933;40.968;14.538;2022-07-23T14:54:07;22.15;;;10.80;;
48767;SDS011;34933;40.968;14.538;2022-07-23T14:56:52;9.15;;;5.00;;
48767;SDS011;34933;40.968;14.538;2022-07-23T14:59:38;13.50;;;5.20;;
48767;SDS011;34933;40.968;14.538;2022-07-23T15:02:22;14.30;;;7.10;;
48767;SDS011;34933;40.968;14.538;2022-07-23T15:05:07;16.33;;;5.47;;
48767;SDS011;34933;40.968;14.538;2022-07-23T15:07:52;60.20;;;44.38;;
48767;SDS011;34933;40.968;14.538;2022-07-23T15:10:37;14.80;;;10.95;;
48767;SDS011;34933;40.968;14.538;2022-07-23T15:13:21;9.35;;;6.75;;
48767;SDS011;34933;40.968;14.538;2022-07-23T15:16:06;87.30;;;64.70;;
48767;SDS011;34933;40.968;14.538;2022-07-23T15:18:50;30.90;;;20.50;;
48767;SDS011;34933;40.968;14.538;2022-07-23T15:21:35;10.07;;;6.18;;
48767;SDS011;34933;40.968;14.538;2022-07-23T15:24:20;8.82;;;5.20;;
48767;SDS011;34933;40.968;14.538;2022-07-23T15:27:05;36.88;;;28.33;;
48767;SDS011;34933;40.968;14.538;2022-07-23T15:29:49;14.30;;;8.30;;
48767;SDS011;34933;40.968;14.538;2022-07-23T15:32:34;7.18;;;4.72;;
48767;SDS011;34933;40.968;14.538;2022-07-23T15:35:19;7.93;;;5.30;;
48767;SDS011;34933;40.968;14.538;2022-07-23T15:38:04;9.77;;;5.43;;
48767;SDS011;34933;40.968;14.538;2022-07-23T15:40:48;9.07;;;6.10;;
48767;SDS011;34933;40.968;14.538;2022-07-23T15:43:33;9.05;;;5.05;;
48767;SDS011;34933;40.968;14.538;2022-07-23T15:46:17;4.90;;;4.20;;
48767;SDS011;34933;40.968;14.538;2022-07-23T15:49:02;9.95;;;4.07;;
48767;SDS011;34933;40.968;14.538;2022-07-23T15:51:47;6.50;;;4.20;;
48767;SDS011;34933;40.968;14.538;2022-07-23T15:54:32;8.70;;;4.13;;
48767;SDS011;34933;40.968;14.538;2022-07-23T15:57:16;6.03;;;4.97;;
48767;SDS011;34933;40.968;14.538;2022-07-23T16:00:03;8.45;;;4.60;;
48767;SDS011;34933;40.968;14.538;2022-07-23T16:02:49;4.38;;;3.95;;
48767;SDS011;34933;40.968;14.538;2022-07-23T16:05:34;7.65;;;4.47;;
48767;SDS011;34933;40.968;14.538;2022-07-23T16:08:19;8.55;;;4.38;;
48767;SDS011;34933;40.968;14.538;2022-07-23T16:11:03;6.53;;;4.32;;
48767;SDS011;34933;40.968;14.538;2022-07-23T16:13:48;4.93;;;3.63;;
48767;SDS011;34933;40.968;14.538;2022-07-23T16:16:32;6.55;;;4.47;;
48767;SDS011;34933;40.968;14.538;2022-07-23T16:19:18;9.02;;;5.15;;
48767;SDS011;34933;40.968;14.538;2022-07-23T16:22:02;6.93;;;5.25;;
48767;SDS011;34933;40.968;14.538;2022-07-23T16:24:47;9.65;;;4.40;;
48767;SDS011;34933;40.968;14.538;2022-07-23T16:27:32;8.55;;;4.13;;
48767;SDS011;34933;40.968;14.538;2022-07-23T16:30:18;5.22;;;4.20;;
48767;SDS011;34933;40.968;14.538;2022-07-23T16:33:02;6.80;;;4.95;;
48767;SDS011;34933;40.968;14.538;2022-07-23T16:35:47;10.75;;;5.25;;
48767;SDS011;34933;40.968;14.538;2022-07-23T16:38:35;8.65;;;5.03;;
48767;SDS011;34933;40.968;14.538;2022-07-23T16:41:20;4.97;;;4.43;;